< Typhoon 200915 2009 Season Typhoon 200917 >
Typhoon 200916 (KETSANA)
General InformationTrack Information on Google MapsDetailed Wind InformationAccess Analytics MapList of All Images || NewsDisaster Info.WeblogTrackbackTyphoon FrontTyphoon ImaginationResourceGoogle EarthGE AnimationAtom FeedGeoJSON
Detalied Best Track (Time Zone = UTC)
Year Month Day Hour Lat. Long. Pressure (hPa) Wind (kt) Class Image Chart
2009 9 25 00 14.2 127.9 1000 0 2 Image Chart
2009 9 25 06 14.3 126.8 998 0 2 Image Chart
2009 9 25 12 14.7 125.3 998 0 2 Image Chart
2009 9 25 18 14.9 123.7 996 0 2 Image Chart
2009 9 26 00 15.1 122.4 994 35 3 Image Chart
2009 9 26 06 15.1 121.2 990 40 3 Image Chart
2009 9 26 12 15.4 119.5 990 40 3 Image Chart
2009 9 26 18 15.3 117.7 990 45 3 Image Chart
2009 9 27 00 15.2 116.5 985 50 4 Image Chart
2009 9 27 06 15.2 115.5 985 50 4 Image Chart
2009 9 27 12 15.6 114.5 980 55 4 Image Chart
2009 9 27 18 15.7 113.7 975 60 4 Image Chart
2009 9 28 00 15.8 112.8 970 60 4 Image Chart
2009 9 28 06 15.8 111.9 960 70 5 Image Chart
2009 9 28 12 16.0 111.1 960 70 5 Image Chart
2009 9 28 18 16.0 110.2 960 70 5 Image Chart
2009 9 29 00 15.5 109.5 960 70 5 Image Chart
2009 9 29 06 15.4 108.9 965 70 5 Image Chart
2009 9 29 12 15.3 108.4 980 60 4 Image Chart
2009 9 29 18 15.3 107.9 990 45 3 Image Chart
2009 9 30 00 15.3 107.6 994 35 3 Image Chart
2009 9 30 06 15.3 107.1 998 0 2 Image Chart
2009 9 30 12 15.2 105.9 1000 0 2 Image Chart
2009 9 30 18 15.1 105.0 1002 0 2 Image Chart
Japan Meteorological Agency Best Track Data | Correction Date : 2009-11-27
< Typhoon 200915 2009 Season Typhoon 200917 >

Help